War Admiral — WDB7881 — position and weather

sailwx.info

Track history (hours):
 
Tides and Currents Weather Stations Pressure Air Temp Water Temp Dewpoint Dewpoint Depression Visibility Wind Speed Wind Dir Waves Ship Positions

War Admiral

Owner: POINT MARINE, L.L.C., NEW ORLEANS,, LA. More information available from US FCC via Universal Licensing System and Coast Guard Vessel Documentation Center.

Last reported at 2015-Apr-20 03:12 UTC. Time now 2015-Apr-21 13:06 UTC.
Position N 34°13' W 119°27'.

Length 66 m; draft 3.7 m.

Type: Cargo ship. MMSI: 368164000.

Date/timePositionNaut miles runAvg speedWind from/ knotsBaromVisibWave heightAir tempDewpointWater temp
2015-Apr-20 03:12N 34°13' W 119°27'13 3.4
2015-Apr-19 23:24N 34°09' W 119°12'0 0.0
2015-Apr-19 21:12N 34°09' W 119°12'0 0.0
2015-Apr-19 20:33N 34°09' W 119°12'0 0.0
2015-Apr-19 19:30N 34°09' W 119°12'0 0.0
2015-Apr-19 17:12N 34°09' W 119°12'0 0.0
2015-Apr-19 16:18N 34°09' W 119°12'2 2.5
2015-Apr-19 15:33N 34°09' W 119°14'1511.8
2015-Apr-19 14:16N 34°14' W 119°31'30 3.9
2015-Apr-19 06:33N 34°23' W 120°06'2 1.1
2015-Apr-19 04:32N 34°23' W 120°09'0 0.2
2015-Apr-19 03:33N 34°23' W 120°09'1 1.0
2015-Apr-19 02:28N 34°23' W 120°10'0 0.0
2015-Apr-19 01:10N 34°23' W 120°10'0 0.1
2015-Apr-19 00:22N 34°23' W 120°10'2 1.3
2015-Apr-18 22:31N 34°23' W 120°07'0 0.1
2015-Apr-18 19:07N 34°24' W 120°07'0 0.2
2015-Apr-18 17:27N 34°23' W 120°07'1 1.1
2015-Apr-18 16:33N 34°24' W 120°08'8 3.2
2015-Apr-18 14:11N 34°21' W 120°17'5 1.4
2015-Apr-18 10:17N 34°23' W 120°11'31 3.5
2015-Apr-18 01:30N 34°15' W 119°35'20 3.8
2015-Apr-17 20:24N 34°09' W 119°12'9 0.2
2015-Apr-16 02:17N 34°11' W 119°23'7 9.8
2015-Apr-16 01:33N 34°08' W 119°15'2 2.0
2015-Apr-16 00:30N 34°09' W 119°12'0 0.0
2015-Apr-15 23:30N 34°09' W 119°12'0 0.0
2015-Apr-15 22:33N 34°09' W 119°12'0 0.0
2015-Apr-15 16:09N 34°09' W 119°12'  
2015-Apr-13 06:09N 34°08' W 119°13'2312.5
2015-Apr-13 04:20N 34°14' W 119°40'912.1
2015-Apr-13 03:34N 34°18' W 119°50'1211.5
2015-Apr-13 02:33N 34°21' W 120°04'4 3.7
2015-Apr-13 01:27N 34°25' W 120°06'0 0.1
2015-Apr-13 00:10N 34°25' W 120°06'0 0.1
2015-Apr-12 19:20N 34°25' W 120°06'  
Track history (hours):
 
Tides and Currents Weather Stations Pressure Air Temp Water Temp Dewpoint Dewpoint Depression Visibility Wind Speed Wind Dir Waves Ship Positions

War Admiral

Owner: POINT MARINE, L.L.C., NEW ORLEANS,, LA. More information available from US FCC via Universal Licensing System and Coast Guard Vessel Documentation Center.

Last reported at 2015-Apr-20 03:12 UTC. Time now 2015-Apr-21 13:06 UTC.
Position N 34°13' W 119°27'.

Length 66 m; draft 3.7 m.

Type: Cargo ship. MMSI: 368164000.

Date/timePositionNaut miles runAvg speedWind from/ knotsBaromVisibWave heightAir tempDewpointWater temp
2015-Apr-20 03:12N 34°13' W 119°27'13 3.4
2015-Apr-19 23:24N 34°09' W 119°12'0 0.0
2015-Apr-19 21:12N 34°09' W 119°12'0 0.0
2015-Apr-19 20:33N 34°09' W 119°12'0 0.0
2015-Apr-19 19:30N 34°09' W 119°12'0 0.0
2015-Apr-19 17:12N 34°09' W 119°12'0 0.0
2015-Apr-19 16:18N 34°09' W 119°12'2 2.5
2015-Apr-19 15:33N 34°09' W 119°14'1511.8
2015-Apr-19 14:16N 34°14' W 119°31'30 3.9
2015-Apr-19 06:33N 34°23' W 120°06'2 1.1
2015-Apr-19 04:32N 34°23' W 120°09'0 0.2
2015-Apr-19 03:33N 34°23' W 120°09'1 1.0
2015-Apr-19 02:28N 34°23' W 120°10'0 0.0
2015-Apr-19 01:10N 34°23' W 120°10'0 0.1
2015-Apr-19 00:22N 34°23' W 120°10'2 1.3
2015-Apr-18 22:31N 34°23' W 120°07'0 0.1
2015-Apr-18 19:07N 34°24' W 120°07'0 0.2
2015-Apr-18 17:27N 34°23' W 120°07'1 1.1
2015-Apr-18 16:33N 34°24' W 120°08'8 3.2
2015-Apr-18 14:11N 34°21' W 120°17'5 1.4
2015-Apr-18 10:17N 34°23' W 120°11'31 3.5
2015-Apr-18 01:30N 34°15' W 119°35'20 3.8
2015-Apr-17 20:24N 34°09' W 119°12'9 0.2
2015-Apr-16 02:17N 34°11' W 119°23'7 9.8
2015-Apr-16 01:33N 34°08' W 119°15'2 2.0
2015-Apr-16 00:30N 34°09' W 119°12'0 0.0
2015-Apr-15 23:30N 34°09' W 119°12'0 0.0
2015-Apr-15 22:33N 34°09' W 119°12'0 0.0
2015-Apr-15 16:09N 34°09' W 119°12'  
2015-Apr-13 06:09N 34°08' W 119°13'2312.5
2015-Apr-13 04:20N 34°14' W 119°40'912.1
2015-Apr-13 03:34N 34°18' W 119°50'1211.5
2015-Apr-13 02:33N 34°21' W 120°04'4 3.7
2015-Apr-13 01:27N 34°25' W 120°06'0 0.1
2015-Apr-13 00:10N 34°25' W 120°06'0 0.1
2015-Apr-12 19:20N 34°25' W 120°06'  

Dump ship's entire track history